Eko 2 — SY9957 — position and weather

sailwx.info

Track history (hours):
 
Tides and Currents Weather Stations Pressure Air Temp Water Temp Dewpoint Dewpoint Depression Visibility Wind Speed Wind Dir Waves Ship Positions

Eko 2

Last reported at 2014-Sep-17 00:19 UTC. Time now 2014-Sep-20 01:51 UTC.
Position N 36°10' E 026°14'.

Length 89 m; draft 4.3 m.

Type: Ship (hazmat cat A). MMSI: 240827000.

Date/timePositionNaut miles runAvg speedWind from/ knotsBaromVisibWave heightAir tempDewpointWater temp
2014-Sep-17 00:19N 36°10' E 026°14'1910.7
2014-Sep-16 22:33N 36°13' E 025°51'1110.8
2014-Sep-16 21:33N 36°16' E 025°38'1111.1
2014-Sep-16 20:33N 36°19' E 025°25'5 4.7
2014-Sep-16 19:33N 36°23' E 025°25'1 0.1
2014-Sep-16 10:07N 36°23' E 025°26'0 0.0
2014-Sep-16 09:26N 36°23' E 025°26'0 0.0
2014-Sep-15 16:10N 36°23' E 025°26'3 4.4
2014-Sep-15 15:33N 36°25' E 025°24'1110.8
2014-Sep-15 14:33N 36°35' E 025°17'1111.0
2014-Sep-15 13:33N 36°45' E 025°11'1111.0
2014-Sep-15 12:33N 36°52' E 025°00'10 9.9
2014-Sep-15 11:34N 37°01' E 024°55'1110.8
2014-Sep-15 10:33N 37°11' E 024°59'1111.1
2014-Sep-15 09:33N 37°21' E 025°06'1110.9
2014-Sep-15 08:33N 37°32' E 025°09'1 0.8
2014-Sep-15 07:29N 37°32' E 025°09'0 0.0
2014-Sep-15 06:32N 37°32' E 025°09'2 1.9
2014-Sep-15 05:33N 37°31' E 025°07'10 9.8
2014-Sep-15 04:31N 37°26' E 024°56'0 0.1
2014-Sep-15 03:31N 37°26' E 024°56'0 0.0
2014-Sep-15 02:31N 37°26' E 024°56'0 0.0
2014-Sep-15 01:31N 37°26' E 024°56'0 0.0
2014-Sep-15 00:31N 37°26' E 024°56'0 0.0
2014-Sep-14 23:31N 37°26' E 024°56'0 0.0
2014-Sep-14 22:31N 37°26' E 024°56'0 0.0
2014-Sep-14 21:31N 37°26' E 024°56'0 0.0
2014-Sep-14 20:31N 37°26' E 024°56'0 0.0
2014-Sep-14 19:31N 37°26' E 024°56'0 0.0
2014-Sep-14 18:31N 37°26' E 024°56'0 0.0
2014-Sep-14 17:31N 37°26' E 024°56'0 0.0
2014-Sep-14 16:31N 37°26' E 024°56'0 0.0
2014-Sep-14 15:31N 37°26' E 024°56'0 0.0
2014-Sep-14 14:31N 37°26' E 024°56'1 1.3
2014-Sep-14 13:33N 37°26' E 024°58'1010.0
2014-Sep-14 12:33N 37°20' E 025°08'1111.1
2014-Sep-14 11:34N 37°12' E 025°17'9 9.5
2014-Sep-14 10:34N 37°02' E 025°18'1010.1
2014-Sep-14 09:33N 36°52' E 025°21'1010.1
2014-Sep-14 08:32N 36°43' E 025°25'7 6.8
2014-Sep-14 07:33N 36°38' E 025°31'1110.7
2014-Sep-14 06:33N 36°46' E 025°40'10 9.8
2014-Sep-14 05:33N 36°50' E 025°51'4 0.4
2014-Sep-13 18:33N 36°50' E 025°46'6 5.9
2014-Sep-13 17:34N 36°44' E 025°47'1010.4
2014-Sep-13 16:34N 36°42' E 025°60'1110.8
2014-Sep-13 15:30N 36°41' E 026°14'36 1.4
2014-Sep-12 13:24N 37°07' E 026°46'1010.6
2014-Sep-12 12:28N 37°09' E 026°34'910.2
2014-Sep-12 11:33N 37°11' E 026°23'1010.4
2014-Sep-12 10:33N 37°14' E 026°10'1010.5
2014-Sep-12 09:34N 37°15' E 025°57'1010.3
2014-Sep-12 08:34N 37°18' E 025°45'1010.3
2014-Sep-12 07:33N 37°20' E 025°32'1010.3
2014-Sep-12 06:33N 37°22' E 025°19'6 6.2
2014-Sep-12 05:33N 37°28' E 025°19'0 0.0
2014-Sep-12 04:33N 37°28' E 025°19'0 0.0
2014-Sep-12 03:33N 37°28' E 025°19'0 0.0
2014-Sep-12 02:33N 37°28' E 025°19'0 0.0
2014-Sep-12 01:33N 37°28' E 025°19'0 0.0
2014-Sep-12 00:33N 37°28' E 025°19'0 0.0
2014-Sep-11 23:30N 37°28' E 025°19'0 0.0
2014-Sep-11 22:33N 37°28' E 025°19'0 0.0
2014-Sep-11 21:30N 37°28' E 025°19'0 0.0
2014-Sep-11 20:33N 37°28' E 025°19'1 1.1
2014-Sep-11 19:33N 37°28' E 025°18'8 8.2
2014-Sep-11 18:33N 37°32' E 025°09'0 0.0
2014-Sep-11 17:33N 37°32' E 025°09'0 0.0
2014-Sep-11 16:33N 37°32' E 025°09'0 0.0
2014-Sep-11 15:33N 37°32' E 025°09'0 0.0
2014-Sep-11 14:33N 37°32' E 025°09'0 0.0
2014-Sep-11 13:33N 37°32' E 025°09'0 0.0
2014-Sep-11 12:33N 37°32' E 025°09'0 0.0
2014-Sep-11 11:30N 37°32' E 025°09'0 0.0
2014-Sep-11 10:33N 37°32' E 025°09'0 0.0
2014-Sep-11 09:33N 37°32' E 025°09'0 0.0
2014-Sep-11 08:33N 37°32' E 025°09'0 0.0
2014-Sep-11 07:33N 37°32' E 025°09'0 0.0
2014-Sep-11 06:33N 37°32' E 025°09'0 0.0
2014-Sep-11 05:33N 37°32' E 025°09'0 0.0
2014-Sep-11 04:33N 37°32' E 025°09'0 0.0
2014-Sep-11 03:33N 37°32' E 025°09'0 0.0
2014-Sep-11 02:33N 37°32' E 025°09'0 0.0
2014-Sep-11 01:33N 37°32' E 025°09'0 0.0
2014-Sep-11 00:33N 37°32' E 025°09'0 0.0
2014-Sep-10 23:33N 37°32' E 025°09'0 0.0
2014-Sep-10 22:33N 37°32' E 025°09'0 0.0
2014-Sep-10 21:33N 37°32' E 025°09'0 0.0
2014-Sep-10 20:33N 37°32' E 025°09'0 0.0
2014-Sep-10 19:33N 37°32' E 025°09'0 0.0
2014-Sep-10 18:33N 37°32' E 025°09'0 0.0
2014-Sep-10 17:33N 37°32' E 025°09'3 3.5
2014-Sep-10 16:33N 37°30' E 025°06'9 8.5
2014-Sep-10 15:31N 37°26' E 024°56'0 0.0
2014-Sep-10 14:31N 37°26' E 024°56'0 0.0
2014-Sep-10 13:31N 37°26' E 024°56'0 0.0
2014-Sep-10 12:31N 37°26' E 024°56'0 0.0
2014-Sep-10 11:28N 37°26' E 024°56'0 0.0
2014-Sep-10 10:31N 37°26' E 024°56'0 0.0
2014-Sep-10 09:31N 37°26' E 024°56'0 0.0
2014-Sep-10 08:31N 37°26' E 024°56'0 0.0
2014-Sep-10 07:31N 37°26' E 024°56'1 1.4
2014-Sep-10 06:34N 37°25' E 024°58'8 7.5
2014-Sep-10 05:27N 37°18' E 024°52'1010.7
2014-Sep-10 04:33N 37°13' E 024°43'1010.4
2014-Sep-10 03:33N 37°08' E 024°32'1 0.8
2014-Sep-10 02:26N 37°08' E 024°31'0 0.0
2014-Sep-10 01:27N 37°08' E 024°31'0 0.0
2014-Sep-10 00:33N 37°08' E 024°31'0 0.0
2014-Sep-09 23:33N 37°08' E 024°31'0 0.0
2014-Sep-09 22:27N 37°08' E 024°31'0 0.0
2014-Sep-09 21:33N 37°08' E 024°31'0 0.0
2014-Sep-09 20:28N 37°08' E 024°31'0 0.0
2014-Sep-09 19:31N 37°08' E 024°31'0 0.0
2014-Sep-09 18:29N 37°08' E 024°31'3 3.5
2014-Sep-09 17:30N 37°05' E 024°29'8 8.7
2014-Sep-09 16:32N 37°09' E 024°20'48 9.6
2014-Sep-09 11:31N 37°45' E 023°39'1010.0
2014-Sep-09 10:33N 37°55' E 023°37'8 7.6
2014-Sep-09 09:28N 38°02' E 023°32'0 0.4
2014-Sep-09 08:33N 38°02' E 023°33'2 0.5
2014-Sep-09 03:25N 38°02' E 023°36'0 0.0
2014-Sep-09 02:19N 38°02' E 023°36'0 0.0
2014-Sep-09 01:14N 38°02' E 023°36'2 3.1
2014-Sep-09 00:26N 38°02' E 023°33'0 0.2
2014-Sep-08 23:04N 38°02' E 023°32'0 0.0
2014-Sep-08 15:31N 38°02' E 023°32'0 0.0
2014-Sep-08 14:16N 38°02' E 023°32'5 6.7
2014-Sep-08 13:34N 37°57' E 023°34'6 5.5
2014-Sep-08 12:33N 37°53' E 023°38'10 9.6
2014-Sep-08 11:33N 37°44' E 023°43'28 9.5
2014-Sep-08 08:33N 37°30' E 024°14'2010.1
2014-Sep-08 06:33N 37°32' E 024°40'1310.0
2014-Sep-08 05:15N 37°32' E 024°56'6 7.9
2014-Sep-08 04:33N 37°26' E 024°56'0 0.1
2014-Sep-08 03:33N 37°26' E 024°56'0 0.0
2014-Sep-08 02:33N 37°26' E 024°56'0 0.0
2014-Sep-08 01:33N 37°26' E 024°56'0 0.0
2014-Sep-08 00:33N 37°26' E 024°56'0 0.0
2014-Sep-07 23:33N 37°26' E 024°56'0 0.0
2014-Sep-07 22:33N 37°26' E 024°56'0 0.0
2014-Sep-07 21:24N 37°26' E 024°56'0 0.0
2014-Sep-07 20:33N 37°26' E 024°56'0 0.0
2014-Sep-07 19:33N 37°26' E 024°56'0 0.0
2014-Sep-07 18:33N 37°26' E 024°56'0 0.0
2014-Sep-07 17:33N 37°26' E 024°56'0 0.0
2014-Sep-07 16:33N 37°26' E 024°56'0 0.0
2014-Sep-07 15:32N 37°26' E 024°56'6 5.6
2014-Sep-07 14:31N 37°32' E 024°57'15 1.3
2014-Sep-07 03:33N 37°43' E 024°45'20 9.8
2014-Sep-07 01:32N 37°24' E 024°48'10 9.9
2014-Sep-07 00:29N 37°13' E 024°50'  
Track history (hours):
 
Tides and Currents Weather Stations Pressure Air Temp Water Temp Dewpoint Dewpoint Depression Visibility Wind Speed Wind Dir Waves Ship Positions

Eko 2

Last reported at 2014-Sep-17 00:19 UTC. Time now 2014-Sep-20 01:51 UTC.
Position N 36°10' E 026°14'.

Length 89 m; draft 4.3 m.

Type: Ship (hazmat cat A). MMSI: 240827000.

Date/timePositionNaut miles runAvg speedWind from/ knotsBaromVisibWave heightAir tempDewpointWater temp
2014-Sep-17 00:19N 36°10' E 026°14'1910.7
2014-Sep-16 22:33N 36°13' E 025°51'1110.8
2014-Sep-16 21:33N 36°16' E 025°38'1111.1
2014-Sep-16 20:33N 36°19' E 025°25'5 4.7
2014-Sep-16 19:33N 36°23' E 025°25'1 0.1
2014-Sep-16 10:07N 36°23' E 025°26'0 0.0
2014-Sep-16 09:26N 36°23' E 025°26'0 0.0
2014-Sep-15 16:10N 36°23' E 025°26'3 4.4
2014-Sep-15 15:33N 36°25' E 025°24'1110.8
2014-Sep-15 14:33N 36°35' E 025°17'1111.0
2014-Sep-15 13:33N 36°45' E 025°11'1111.0
2014-Sep-15 12:33N 36°52' E 025°00'10 9.9
2014-Sep-15 11:34N 37°01' E 024°55'1110.8
2014-Sep-15 10:33N 37°11' E 024°59'1111.1
2014-Sep-15 09:33N 37°21' E 025°06'1110.9
2014-Sep-15 08:33N 37°32' E 025°09'1 0.8
2014-Sep-15 07:29N 37°32' E 025°09'0 0.0
2014-Sep-15 06:32N 37°32' E 025°09'2 1.9
2014-Sep-15 05:33N 37°31' E 025°07'10 9.8
2014-Sep-15 04:31N 37°26' E 024°56'0 0.1
2014-Sep-15 03:31N 37°26' E 024°56'0 0.0
2014-Sep-15 02:31N 37°26' E 024°56'0 0.0
2014-Sep-15 01:31N 37°26' E 024°56'0 0.0
2014-Sep-15 00:31N 37°26' E 024°56'0 0.0
2014-Sep-14 23:31N 37°26' E 024°56'0 0.0
2014-Sep-14 22:31N 37°26' E 024°56'0 0.0
2014-Sep-14 21:31N 37°26' E 024°56'0 0.0
2014-Sep-14 20:31N 37°26' E 024°56'0 0.0
2014-Sep-14 19:31N 37°26' E 024°56'0 0.0
2014-Sep-14 18:31N 37°26' E 024°56'0 0.0
2014-Sep-14 17:31N 37°26' E 024°56'0 0.0
2014-Sep-14 16:31N 37°26' E 024°56'0 0.0
2014-Sep-14 15:31N 37°26' E 024°56'0 0.0
2014-Sep-14 14:31N 37°26' E 024°56'1 1.3
2014-Sep-14 13:33N 37°26' E 024°58'1010.0
2014-Sep-14 12:33N 37°20' E 025°08'1111.1
2014-Sep-14 11:34N 37°12' E 025°17'9 9.5
2014-Sep-14 10:34N 37°02' E 025°18'1010.1
2014-Sep-14 09:33N 36°52' E 025°21'1010.1
2014-Sep-14 08:32N 36°43' E 025°25'7 6.8
2014-Sep-14 07:33N 36°38' E 025°31'1110.7
2014-Sep-14 06:33N 36°46' E 025°40'10 9.8
2014-Sep-14 05:33N 36°50' E 025°51'4 0.4
2014-Sep-13 18:33N 36°50' E 025°46'6 5.9
2014-Sep-13 17:34N 36°44' E 025°47'1010.4
2014-Sep-13 16:34N 36°42' E 025°60'1110.8
2014-Sep-13 15:30N 36°41' E 026°14'36 1.4
2014-Sep-12 13:24N 37°07' E 026°46'1010.6
2014-Sep-12 12:28N 37°09' E 026°34'910.2
2014-Sep-12 11:33N 37°11' E 026°23'1010.4
2014-Sep-12 10:33N 37°14' E 026°10'1010.5
2014-Sep-12 09:34N 37°15' E 025°57'1010.3
2014-Sep-12 08:34N 37°18' E 025°45'1010.3
2014-Sep-12 07:33N 37°20' E 025°32'1010.3
2014-Sep-12 06:33N 37°22' E 025°19'6 6.2
2014-Sep-12 05:33N 37°28' E 025°19'0 0.0
2014-Sep-12 04:33N 37°28' E 025°19'0 0.0
2014-Sep-12 03:33N 37°28' E 025°19'0 0.0
2014-Sep-12 02:33N 37°28' E 025°19'0 0.0
2014-Sep-12 01:33N 37°28' E 025°19'0 0.0
2014-Sep-12 00:33N 37°28' E 025°19'0 0.0
2014-Sep-11 23:30N 37°28' E 025°19'0 0.0
2014-Sep-11 22:33N 37°28' E 025°19'0 0.0
2014-Sep-11 21:30N 37°28' E 025°19'0 0.0
2014-Sep-11 20:33N 37°28' E 025°19'1 1.1
2014-Sep-11 19:33N 37°28' E 025°18'8 8.2
2014-Sep-11 18:33N 37°32' E 025°09'0 0.0
2014-Sep-11 17:33N 37°32' E 025°09'0 0.0
2014-Sep-11 16:33N 37°32' E 025°09'0 0.0
2014-Sep-11 15:33N 37°32' E 025°09'0 0.0
2014-Sep-11 14:33N 37°32' E 025°09'0 0.0
2014-Sep-11 13:33N 37°32' E 025°09'0 0.0
2014-Sep-11 12:33N 37°32' E 025°09'0 0.0
2014-Sep-11 11:30N 37°32' E 025°09'0 0.0
2014-Sep-11 10:33N 37°32' E 025°09'0 0.0
2014-Sep-11 09:33N 37°32' E 025°09'0 0.0
2014-Sep-11 08:33N 37°32' E 025°09'0 0.0
2014-Sep-11 07:33N 37°32' E 025°09'0 0.0
2014-Sep-11 06:33N 37°32' E 025°09'0 0.0
2014-Sep-11 05:33N 37°32' E 025°09'0 0.0
2014-Sep-11 04:33N 37°32' E 025°09'0 0.0
2014-Sep-11 03:33N 37°32' E 025°09'0 0.0
2014-Sep-11 02:33N 37°32' E 025°09'0 0.0
2014-Sep-11 01:33N 37°32' E 025°09'0 0.0
2014-Sep-11 00:33N 37°32' E 025°09'0 0.0
2014-Sep-10 23:33N 37°32' E 025°09'0 0.0
2014-Sep-10 22:33N 37°32' E 025°09'0 0.0
2014-Sep-10 21:33N 37°32' E 025°09'0 0.0
2014-Sep-10 20:33N 37°32' E 025°09'0 0.0
2014-Sep-10 19:33N 37°32' E 025°09'0 0.0
2014-Sep-10 18:33N 37°32' E 025°09'0 0.0
2014-Sep-10 17:33N 37°32' E 025°09'3 3.5
2014-Sep-10 16:33N 37°30' E 025°06'9 8.5
2014-Sep-10 15:31N 37°26' E 024°56'0 0.0
2014-Sep-10 14:31N 37°26' E 024°56'0 0.0
2014-Sep-10 13:31N 37°26' E 024°56'0 0.0
2014-Sep-10 12:31N 37°26' E 024°56'0 0.0
2014-Sep-10 11:28N 37°26' E 024°56'0 0.0
2014-Sep-10 10:31N 37°26' E 024°56'0 0.0
2014-Sep-10 09:31N 37°26' E 024°56'0 0.0
2014-Sep-10 08:31N 37°26' E 024°56'0 0.0
2014-Sep-10 07:31N 37°26' E 024°56'1 1.4
2014-Sep-10 06:34N 37°25' E 024°58'8 7.5
2014-Sep-10 05:27N 37°18' E 024°52'1010.7
2014-Sep-10 04:33N 37°13' E 024°43'1010.4
2014-Sep-10 03:33N 37°08' E 024°32'1 0.8
2014-Sep-10 02:26N 37°08' E 024°31'0 0.0
2014-Sep-10 01:27N 37°08' E 024°31'0 0.0
2014-Sep-10 00:33N 37°08' E 024°31'0 0.0
2014-Sep-09 23:33N 37°08' E 024°31'0 0.0
2014-Sep-09 22:27N 37°08' E 024°31'0 0.0
2014-Sep-09 21:33N 37°08' E 024°31'0 0.0
2014-Sep-09 20:28N 37°08' E 024°31'0 0.0
2014-Sep-09 19:31N 37°08' E 024°31'0 0.0
2014-Sep-09 18:29N 37°08' E 024°31'3 3.5
2014-Sep-09 17:30N 37°05' E 024°29'8 8.7
2014-Sep-09 16:32N 37°09' E 024°20'48 9.6
2014-Sep-09 11:31N 37°45' E 023°39'1010.0
2014-Sep-09 10:33N 37°55' E 023°37'8 7.6
2014-Sep-09 09:28N 38°02' E 023°32'0 0.4
2014-Sep-09 08:33N 38°02' E 023°33'2 0.5
2014-Sep-09 03:25N 38°02' E 023°36'0 0.0
2014-Sep-09 02:19N 38°02' E 023°36'0 0.0
2014-Sep-09 01:14N 38°02' E 023°36'2 3.1
2014-Sep-09 00:26N 38°02' E 023°33'0 0.2
2014-Sep-08 23:04N 38°02' E 023°32'0 0.0
2014-Sep-08 15:31N 38°02' E 023°32'0 0.0
2014-Sep-08 14:16N 38°02' E 023°32'5 6.7
2014-Sep-08 13:34N 37°57' E 023°34'6 5.5
2014-Sep-08 12:33N 37°53' E 023°38'10 9.6
2014-Sep-08 11:33N 37°44' E 023°43'28 9.5
2014-Sep-08 08:33N 37°30' E 024°14'2010.1
2014-Sep-08 06:33N 37°32' E 024°40'1310.0
2014-Sep-08 05:15N 37°32' E 024°56'6 7.9
2014-Sep-08 04:33N 37°26' E 024°56'0 0.1
2014-Sep-08 03:33N 37°26' E 024°56'0 0.0
2014-Sep-08 02:33N 37°26' E 024°56'0 0.0
2014-Sep-08 01:33N 37°26' E 024°56'0 0.0
2014-Sep-08 00:33N 37°26' E 024°56'0 0.0
2014-Sep-07 23:33N 37°26' E 024°56'0 0.0
2014-Sep-07 22:33N 37°26' E 024°56'0 0.0
2014-Sep-07 21:24N 37°26' E 024°56'0 0.0
2014-Sep-07 20:33N 37°26' E 024°56'0 0.0
2014-Sep-07 19:33N 37°26' E 024°56'0 0.0
2014-Sep-07 18:33N 37°26' E 024°56'0 0.0
2014-Sep-07 17:33N 37°26' E 024°56'0 0.0
2014-Sep-07 16:33N 37°26' E 024°56'0 0.0
2014-Sep-07 15:32N 37°26' E 024°56'6 5.6
2014-Sep-07 14:31N 37°32' E 024°57'15 1.3
2014-Sep-07 03:33N 37°43' E 024°45'20 9.8
2014-Sep-07 01:32N 37°24' E 024°48'10 9.9
2014-Sep-07 00:29N 37°13' E 024°50'  

Dump ship's entire track history